createdAt,value
2022-07-26T00:01:50.961Z,22.00
2022-07-26T00:04:17.915Z,22.00
2022-07-26T00:06:44.961Z,21.90
2022-07-26T00:09:11.845Z,21.90
2022-07-26T00:11:38.782Z,21.90
2022-07-26T00:14:08.820Z,21.90
2022-07-26T00:16:38.965Z,21.80
2022-07-26T00:19:09.386Z,21.80
2022-07-26T00:21:40.817Z,21.70
2022-07-26T00:24:10.869Z,21.70
2022-07-26T00:26:37.711Z,21.70
2022-07-26T00:29:06.030Z,21.60
2022-07-26T00:31:33.087Z,21.50
2022-07-26T00:34:00.407Z,21.50
2022-07-26T00:36:29.752Z,21.40
2022-07-26T00:38:56.678Z,21.40
2022-07-26T00:41:25.822Z,21.40
2022-07-26T00:44:00.036Z,21.40
2022-07-26T00:46:27.514Z,21.30
2022-07-26T00:48:54.381Z,21.30
2022-07-26T00:51:21.946Z,21.20
2022-07-26T00:53:53.836Z,21.20
2022-07-26T00:56:23.218Z,21.10
2022-07-26T00:58:49.920Z,21.10
2022-07-26T01:01:20.269Z,21.10
2022-07-26T01:03:56.132Z,21.00
2022-07-26T01:06:27.471Z,21.00
2022-07-26T01:08:56.890Z,21.00
2022-07-26T01:11:23.604Z,21.00
2022-07-26T01:13:52.567Z,21.10
2022-07-26T01:16:19.433Z,21.00
2022-07-26T01:18:47.350Z,21.10
2022-07-26T01:21:14.718Z,21.10
2022-07-26T01:23:46.730Z,21.00
2022-07-26T01:26:13.920Z,21.00
2022-07-26T01:28:41.259Z,21.00
2022-07-26T01:31:10.724Z,21.00
2022-07-26T01:33:37.459Z,20.90
2022-07-26T01:36:04.347Z,20.90
2022-07-26T01:38:32.149Z,20.90
2022-07-26T01:41:01.072Z,20.90
2022-07-26T01:43:27.953Z,20.90
2022-07-26T01:45:56.999Z,20.80
2022-07-26T01:48:26.478Z,20.80
2022-07-26T01:50:53.360Z,20.80
2022-07-26T01:53:20.163Z,20.70
2022-07-26T01:55:48.991Z,20.70
2022-07-26T01:58:17.805Z,20.80
2022-07-26T02:00:46.753Z,20.70
2022-07-26T02:03:18.460Z,20.70
2022-07-26T02:05:47.444Z,20.70
2022-07-26T02:08:16.426Z,20.70
2022-07-26T02:11:00.430Z,20.60
2022-07-26T02:13:40.474Z,20.60
2022-07-26T02:16:11.987Z,20.60
2022-07-26T02:18:43.946Z,20.60
2022-07-26T02:21:10.648Z,20.60
2022-07-26T02:23:41.678Z,20.50
2022-07-26T02:26:09.135Z,20.50
2022-07-26T02:28:35.911Z,20.50
2022-07-26T02:31:04.854Z,20.50
2022-07-26T02:33:33.885Z,20.50
2022-07-26T02:36:00.595Z,20.40
2022-07-26T02:38:29.436Z,20.30
2022-07-26T02:40:56.150Z,20.30
2022-07-26T02:43:22.896Z,20.30
2022-07-26T02:46:01.407Z,20.30
2022-07-26T02:48:30.083Z,20.30
2022-07-26T02:50:59.220Z,20.20
2022-07-26T02:53:28.281Z,20.20
2022-07-26T02:55:54.933Z,20.10
2022-07-26T02:58:27.099Z,20.10
2022-07-26T03:00:53.834Z,20.10
2022-07-26T03:03:20.537Z,20.10
2022-07-26T03:05:49.806Z,20.10
2022-07-26T03:08:18.975Z,20.00
2022-07-26T03:10:45.631Z,20.00
2022-07-26T03:13:15.178Z,20.00
2022-07-26T03:15:44.663Z,20.00
2022-07-26T03:18:11.405Z,20.00
2022-07-26T03:20:38.165Z,20.00
2022-07-26T03:23:06.977Z,19.90
2022-07-26T03:25:37.678Z,19.90
2022-07-26T03:28:04.692Z,19.90
2022-07-26T03:30:34.247Z,19.90
2022-07-26T03:33:03.537Z,19.80
2022-07-26T03:35:30.328Z,19.90
2022-07-26T03:38:05.760Z,19.80
2022-07-26T03:40:35.007Z,19.90
2022-07-26T03:43:01.756Z,19.80
2022-07-26T03:45:29.846Z,19.80
2022-07-26T03:47:56.601Z,19.80
2022-07-26T03:50:23.335Z,19.80
2022-07-26T03:52:52.474Z,19.80
2022-07-26T03:55:37.753Z,19.70
2022-07-26T03:58:06.744Z,19.70
2022-07-26T04:00:35.550Z,19.70
2022-07-26T04:03:04.865Z,19.60
2022-07-26T04:05:31.635Z,19.60
2022-07-26T04:08:00.759Z,19.60
2022-07-26T04:10:32.472Z,19.60
2022-07-26T04:13:01.379Z,19.60
2022-07-26T04:15:28.101Z,19.60
2022-07-26T04:17:57.019Z,19.70
2022-07-26T04:20:26.194Z,19.70
2022-07-26T04:22:52.894Z,19.70
2022-07-26T04:25:19.842Z,19.70
2022-07-26T04:27:46.546Z,19.70
2022-07-26T04:30:15.312Z,19.70
2022-07-26T04:32:44.001Z,19.70
2022-07-26T04:35:12.637Z,19.70
2022-07-26T04:37:43.358Z,19.60
2022-07-26T04:40:10.581Z,19.60
2022-07-26T04:42:43.276Z,19.60
2022-07-26T04:45:13.703Z,19.60
2022-07-26T04:47:44.710Z,19.60
2022-07-26T04:50:12.791Z,19.60
2022-07-26T04:52:44.864Z,19.60
2022-07-26T04:55:17.399Z,19.60
2022-07-26T04:57:44.704Z,19.60
2022-07-26T05:00:21.963Z,19.50
2022-07-26T05:02:51.065Z,19.40
2022-07-26T05:05:17.874Z,19.40
2022-07-26T05:07:47.354Z,19.30
2022-07-26T05:10:16.118Z,19.40
2022-07-26T05:12:46.441Z,19.40
2022-07-26T05:15:14.431Z,19.40
2022-07-26T05:17:44.685Z,19.50
2022-07-26T05:20:15.561Z,19.50
2022-07-26T05:22:45.181Z,19.50
2022-07-26T05:25:16.889Z,19.60
2022-07-26T05:27:45.783Z,19.60
2022-07-26T05:30:12.956Z,19.60
2022-07-26T05:32:42.175Z,19.70
2022-07-26T05:35:09.153Z,19.80
2022-07-26T05:37:38.742Z,19.90
2022-07-26T05:40:06.524Z,19.90
2022-07-26T05:42:36.022Z,20.10
2022-07-26T05:45:04.163Z,20.20
2022-07-26T05:47:34.394Z,20.20
2022-07-26T05:50:01.114Z,20.40
2022-07-26T05:52:27.969Z,20.50
2022-07-26T05:54:57.193Z,20.60
2022-07-26T05:57:24.034Z,20.60
2022-07-26T05:59:50.902Z,20.70
2022-07-26T06:02:17.914Z,20.80
2022-07-26T06:04:47.371Z,21.00
2022-07-26T06:07:16.944Z,21.10
2022-07-26T06:09:46.277Z,21.30
2022-07-26T06:12:15.576Z,21.40
2022-07-26T06:14:44.516Z,21.50
2022-07-26T06:17:11.303Z,21.70
2022-07-26T06:19:38.049Z,21.80
2022-07-26T06:22:05.197Z,23.20
2022-07-26T06:24:34.288Z,25.80
2022-07-26T06:27:05.754Z,27.70
2022-07-26T06:29:32.967Z,29.40
2022-07-26T06:32:04.640Z,30.60
2022-07-26T06:34:31.707Z,31.60
2022-07-26T06:36:58.841Z,32.10
2022-07-26T06:39:27.826Z,32.50
2022-07-26T06:41:56.824Z,32.80
2022-07-26T06:44:23.509Z,32.80
2022-07-26T06:46:52.496Z,32.80
2022-07-26T06:49:23.017Z,32.60
2022-07-26T06:51:52.414Z,32.40
2022-07-26T06:54:19.198Z,32.30
2022-07-26T06:56:45.881Z,32.00
2022-07-26T06:59:12.739Z,31.50
2022-07-26T07:01:58.223Z,31.30
2022-07-26T07:04:26.369Z,31.00
2022-07-26T07:06:53.105Z,30.60
2022-07-26T07:09:19.953Z,30.30
2022-07-26T07:11:49.843Z,29.90
2022-07-26T07:14:20.440Z,29.60
2022-07-26T07:16:49.383Z,29.20
2022-07-26T07:19:16.175Z,29.10
2022-07-26T07:21:42.829Z,28.90
2022-07-26T07:24:09.881Z,28.60
2022-07-26T07:26:39.193Z,28.40
2022-07-26T07:29:11.934Z,28.10
2022-07-26T07:31:48.794Z,28.10
2022-07-26T07:34:19.682Z,27.90
2022-07-26T07:36:48.779Z,27.60
2022-07-26T07:39:17.299Z,27.40
2022-07-26T07:41:50.672Z,27.00
2022-07-26T07:44:19.849Z,26.80
2022-07-26T07:46:46.627Z,26.80
2022-07-26T07:49:13.810Z,26.90
2022-07-26T07:51:40.694Z,27.00
2022-07-26T07:54:08.605Z,27.00
2022-07-26T07:56:40.117Z,26.80
2022-07-26T07:59:09.445Z,26.80
2022-07-26T08:01:40.589Z,26.70
2022-07-26T08:04:09.398Z,26.80
2022-07-26T08:06:36.615Z,26.90
2022-07-26T08:09:05.521Z,26.80
2022-07-26T08:11:33.946Z,26.80
2022-07-26T08:14:03.436Z,26.90
2022-07-26T08:16:30.945Z,26.90
2022-07-26T08:18:58.571Z,26.70
2022-07-26T08:21:28.180Z,26.60
2022-07-26T08:23:58.681Z,26.30
2022-07-26T08:26:25.583Z,26.30
2022-07-26T08:28:59.910Z,26.10
2022-07-26T08:31:30.422Z,26.10
2022-07-26T08:33:59.849Z,26.00
2022-07-26T08:36:32.761Z,25.80
2022-07-26T08:39:03.010Z,25.70
2022-07-26T08:41:30.948Z,25.70
2022-07-26T08:44:05.928Z,25.60
2022-07-26T08:46:36.583Z,25.60
2022-07-26T08:49:07.985Z,25.60
2022-07-26T08:51:38.150Z,25.60
2022-07-26T08:54:07.236Z,25.80
2022-07-26T08:56:41.561Z,26.00
2022-07-26T08:59:20.611Z,25.80
2022-07-26T09:02:14.576Z,25.70
2022-07-26T09:04:46.285Z,25.50
2022-07-26T09:07:17.533Z,25.40
2022-07-26T09:10:01.955Z,25.30
2022-07-26T09:12:30.537Z,25.30
2022-07-26T09:14:58.344Z,25.20
2022-07-26T09:17:40.557Z,25.10
2022-07-26T09:20:14.821Z,25.10
2022-07-26T09:23:01.865Z,25.20
2022-07-26T09:25:36.639Z,25.20
2022-07-26T09:28:05.138Z,25.10
2022-07-26T09:30:35.066Z,25.20
2022-07-26T09:33:07.582Z,25.30
2022-07-26T09:35:50.382Z,25.40
2022-07-26T09:38:18.250Z,25.40
2022-07-26T09:40:50.785Z,25.40
2022-07-26T09:43:24.337Z,25.30
2022-07-26T09:46:05.346Z,25.30
2022-07-26T09:48:52.287Z,25.30
2022-07-26T09:51:39.066Z,25.30
2022-07-26T09:54:06.022Z,25.10
2022-07-26T09:56:45.440Z,25.10
2022-07-26T09:59:16.577Z,25.10
2022-07-26T10:01:44.409Z,25.10
2022-07-26T10:04:11.957Z,25.20
2022-07-26T10:06:40.222Z,25.20
2022-07-26T10:09:10.143Z,25.20
2022-07-26T10:12:06.565Z,25.20
2022-07-26T10:14:33.283Z,25.20
2022-07-26T10:17:34.866Z,25.10
2022-07-26T10:20:17.259Z,25.00
2022-07-26T10:22:52.974Z,25.00
2022-07-26T10:25:19.955Z,24.90
2022-07-26T10:27:53.096Z,24.80
2022-07-26T10:30:22.607Z,24.70
2022-07-26T10:33:01.260Z,24.80
2022-07-26T10:35:31.892Z,24.80
2022-07-26T10:38:00.138Z,24.90
2022-07-26T10:40:32.418Z,25.00
2022-07-26T10:46:16.187Z,25.10
2022-07-26T10:49:03.966Z,25.10
2022-07-26T10:51:34.104Z,25.20
2022-07-26T10:54:02.303Z,25.20
2022-07-26T10:56:33.672Z,25.20
2022-07-26T10:59:01.466Z,25.30
2022-07-26T11:01:39.587Z,25.40
2022-07-26T11:04:25.671Z,25.50
2022-07-26T11:06:52.962Z,25.60
2022-07-26T11:09:20.884Z,25.60
2022-07-26T11:11:52.302Z,25.60
2022-07-26T11:14:21.518Z,25.40
2022-07-26T11:16:51.019Z,25.40
2022-07-26T11:19:21.989Z,25.40
2022-07-26T11:21:59.513Z,25.40
2022-07-26T11:24:27.080Z,25.40
2022-07-26T11:26:54.824Z,25.50
2022-07-26T11:29:38.563Z,25.50
2022-07-26T11:32:18.308Z,25.60
2022-07-26T11:34:50.333Z,25.60
2022-07-26T11:37:16.985Z,25.60
2022-07-26T11:39:43.716Z,25.60
2022-07-26T11:42:13.137Z,25.60
2022-07-26T11:44:48.726Z,25.60
2022-07-26T11:47:19.914Z,25.50
2022-07-26T11:49:59.852Z,25.60
2022-07-26T11:52:31.852Z,25.70
2022-07-26T11:55:03.540Z,25.70
2022-07-26T11:57:31.509Z,25.70
2022-07-26T11:59:59.648Z,25.80
2022-07-26T12:02:27.922Z,25.80
2022-07-26T12:05:16.604Z,25.80
2022-07-26T12:08:03.810Z,25.70
2022-07-26T12:10:30.652Z,25.50
2022-07-26T12:13:15.762Z,25.40
2022-07-26T12:15:48.267Z,25.40
2022-07-26T12:18:30.089Z,25.20
2022-07-26T12:21:07.080Z,25.10
2022-07-26T12:23:48.651Z,25.10
2022-07-26T12:26:23.735Z,25.10
2022-07-26T12:28:50.535Z,25.10
2022-07-26T12:31:34.446Z,25.10
2022-07-26T12:34:01.436Z,25.20
2022-07-26T12:36:35.953Z,25.20
2022-07-26T12:39:05.965Z,25.30
2022-07-26T12:41:39.983Z,25.20
2022-07-26T12:44:11.654Z,25.30
2022-07-26T12:46:39.090Z,25.40
2022-07-26T12:49:06.253Z,25.40
2022-07-26T12:51:36.776Z,25.50
2022-07-26T12:54:07.536Z,25.60
2022-07-26T12:56:36.849Z,25.70
2022-07-26T12:59:06.024Z,25.80
2022-07-26T13:01:35.393Z,25.90
2022-07-26T13:04:02.296Z,25.90
2022-07-26T13:06:29.645Z,25.90
2022-07-26T13:08:56.450Z,25.90
2022-07-26T13:11:23.549Z,25.90
2022-07-26T13:13:52.543Z,25.90
2022-07-26T13:16:23.987Z,25.80
2022-07-26T13:18:52.837Z,25.80
2022-07-26T13:21:21.966Z,25.60
2022-07-26T13:23:48.847Z,25.60
2022-07-26T13:26:15.657Z,25.60
2022-07-26T13:28:43.177Z,25.70
2022-07-26T13:31:12.915Z,25.60
2022-07-26T13:33:39.805Z,25.60
2022-07-26T13:36:08.886Z,25.60
2022-07-26T13:38:35.921Z,25.60
2022-07-26T13:41:05.969Z,25.60
2022-07-26T13:43:32.974Z,25.50
2022-07-26T13:46:01.895Z,25.50
2022-07-26T13:48:29.122Z,25.50
2022-07-26T13:50:58.379Z,25.60
2022-07-26T13:53:27.623Z,25.60
2022-07-26T13:55:56.684Z,25.60
2022-07-26T13:58:25.801Z,25.80
2022-07-26T14:00:55.574Z,25.90
2022-07-26T14:03:26.258Z,26.00
2022-07-26T14:05:55.242Z,26.20
2022-07-26T14:08:26.612Z,26.30
2022-07-26T14:10:53.409Z,26.40
2022-07-26T14:13:24.741Z,26.40
2022-07-26T14:15:51.462Z,26.40
2022-07-26T14:18:20.638Z,26.40
2022-07-26T14:20:47.650Z,26.20
2022-07-26T14:23:16.799Z,26.10
2022-07-26T14:25:43.466Z,26.20
2022-07-26T14:28:10.199Z,26.20
2022-07-26T14:30:39.635Z,26.30
2022-07-26T14:33:07.169Z,26.30
2022-07-26T14:35:36.065Z,26.30
2022-07-26T14:38:02.904Z,26.30
2022-07-26T14:40:29.690Z,26.30
2022-07-26T14:42:56.509Z,26.30
2022-07-26T14:45:27.912Z,26.20
2022-07-26T14:47:57.358Z,26.20
2022-07-26T14:50:26.327Z,26.20
2022-07-26T14:52:54.097Z,26.20
2022-07-26T14:55:25.288Z,26.20
2022-07-26T14:57:54.707Z,26.20
2022-07-26T15:00:21.781Z,26.20
2022-07-26T15:02:53.219Z,26.20
2022-07-26T15:05:20.065Z,26.30
2022-07-26T15:07:46.849Z,26.20
2022-07-26T15:10:16.452Z,26.20
2022-07-26T15:12:43.732Z,26.20
2022-07-26T15:15:12.832Z,26.20
2022-07-26T15:17:42.103Z,26.20
2022-07-26T15:20:11.360Z,26.10
2022-07-26T15:22:40.291Z,26.10
2022-07-26T15:25:07.559Z,26.00
2022-07-26T15:27:34.324Z,26.00
2022-07-26T15:30:10.189Z,26.00
2022-07-26T15:32:43.346Z,26.00
2022-07-26T15:35:14.102Z,26.00
2022-07-26T15:37:44.304Z,26.10
2022-07-26T15:40:12.382Z,26.00
2022-07-26T15:42:43.455Z,26.00
2022-07-26T15:45:12.058Z,26.00
2022-07-26T15:48:03.162Z,26.00
2022-07-26T15:50:26.964Z,25.80
2022-07-26T15:52:53.719Z,25.70
2022-07-26T15:55:22.775Z,25.60
2022-07-26T15:57:49.706Z,25.60
2022-07-26T16:00:17.026Z,25.50
2022-07-26T16:02:43.968Z,25.40
2022-07-26T16:05:13.580Z,25.40
2022-07-26T16:07:44.032Z,25.30
2022-07-26T16:10:14.875Z,25.40
2022-07-26T16:12:42.081Z,25.40
2022-07-26T16:15:16.439Z,25.40
2022-07-26T16:17:43.211Z,25.30
2022-07-26T16:20:10.277Z,25.30
2022-07-26T16:22:40.857Z,25.20
2022-07-26T16:25:13.026Z,25.20
2022-07-26T16:27:45.978Z,25.20
2022-07-26T16:30:14.472Z,25.20
2022-07-26T16:32:41.605Z,25.20
2022-07-26T16:35:09.382Z,25.20
2022-07-26T16:37:38.737Z,25.10
2022-07-26T16:40:06.895Z,25.00
2022-07-26T16:42:33.699Z,25.00
2022-07-26T16:45:00.408Z,25.00
2022-07-26T16:47:27.154Z,25.00
2022-07-26T16:49:53.849Z,25.00
2022-07-26T16:52:22.816Z,25.00
2022-07-26T16:54:51.909Z,24.90
2022-07-26T16:57:20.951Z,24.90
2022-07-26T16:59:52.393Z,25.00
2022-07-26T17:02:24.362Z,25.00
2022-07-26T17:04:51.586Z,25.00
2022-07-26T17:07:26.229Z,25.00
2022-07-26T17:09:54.518Z,25.00
2022-07-26T17:12:22.216Z,25.00
2022-07-26T17:14:51.415Z,24.90
2022-07-26T17:17:20.770Z,24.90
2022-07-26T17:19:50.382Z,24.80
2022-07-26T17:22:20.037Z,24.80
2022-07-26T17:24:47.556Z,24.80
2022-07-26T17:27:18.139Z,24.70
2022-07-26T17:29:44.705Z,24.70
2022-07-26T17:32:11.550Z,24.70
2022-07-26T17:34:39.086Z,24.70
2022-07-26T17:37:10.267Z,24.80
2022-07-26T17:39:51.934Z,24.70
2022-07-26T17:42:19.948Z,24.70
2022-07-26T17:44:46.638Z,24.60
2022-07-26T17:47:27.508Z,24.70
2022-07-26T17:49:55.812Z,24.80
2022-07-26T17:52:23.666Z,24.80
2022-07-26T17:54:50.953Z,24.70
2022-07-26T17:57:17.669Z,24.70
2022-07-26T17:59:46.802Z,24.70
2022-07-26T18:02:13.566Z,24.70
2022-07-26T18:04:40.316Z,24.60
2022-07-26T18:07:07.052Z,24.60
2022-07-26T18:09:33.766Z,24.60
2022-07-26T18:12:00.514Z,24.60
2022-07-26T18:14:27.240Z,24.60
2022-07-26T18:16:56.643Z,24.60
2022-07-26T18:19:25.849Z,24.50
2022-07-26T18:21:52.540Z,24.50
2022-07-26T18:24:19.228Z,24.50
2022-07-26T18:26:45.916Z,24.40
2022-07-26T18:29:15.046Z,24.40
2022-07-26T18:31:44.066Z,24.30
2022-07-26T18:34:13.162Z,24.30
2022-07-26T18:36:39.811Z,24.30
2022-07-26T18:39:06.624Z,24.20
2022-07-26T18:41:34.338Z,24.10
2022-07-26T18:44:01.145Z,24.00
2022-07-26T18:46:30.133Z,24.00
2022-07-26T18:48:57.374Z,23.90
2022-07-26T18:51:26.528Z,23.90
2022-07-26T18:53:58.305Z,23.90
2022-07-26T18:56:25.168Z,23.80
2022-07-26T18:58:54.406Z,23.80
2022-07-26T19:01:21.239Z,23.70
2022-07-26T19:03:47.999Z,23.80
2022-07-26T19:06:19.635Z,23.70
2022-07-26T19:08:48.537Z,23.70
2022-07-26T19:11:15.284Z,23.60
2022-07-26T19:13:41.966Z,23.60
2022-07-26T19:16:08.761Z,23.60
2022-07-26T19:18:37.947Z,23.50
2022-07-26T19:21:07.122Z,23.50
2022-07-26T19:23:41.620Z,23.40
2022-07-26T19:26:08.359Z,23.40
2022-07-26T19:28:37.317Z,23.40
2022-07-26T19:31:06.608Z,23.40
2022-07-26T19:33:33.535Z,23.50
2022-07-26T19:36:00.297Z,23.40
2022-07-26T19:38:29.448Z,23.30
2022-07-26T19:40:56.118Z,23.30
2022-07-26T19:43:25.030Z,23.20
2022-07-26T19:45:54.778Z,23.20
2022-07-26T19:48:24.035Z,23.20
2022-07-26T19:50:51.290Z,23.20
2022-07-26T19:53:20.537Z,23.20
2022-07-26T19:55:47.517Z,23.00
2022-07-26T19:58:14.375Z,23.00
2022-07-26T20:00:41.237Z,23.00
2022-07-26T20:03:11.576Z,23.00
2022-07-26T20:05:42.891Z,23.00
2022-07-26T20:08:09.597Z,22.90
2022-07-26T20:10:36.264Z,22.80
2022-07-26T20:13:03.034Z,22.70
2022-07-26T20:15:32.288Z,22.70
2022-07-26T20:18:05.939Z,22.60
2022-07-26T20:20:34.756Z,22.60
2022-07-26T20:23:05.952Z,22.50
2022-07-26T20:25:33.193Z,22.50
2022-07-26T20:28:00.449Z,22.50
2022-07-26T20:30:29.448Z,22.50
2022-07-26T20:32:56.184Z,22.40
2022-07-26T20:35:22.949Z,22.40
2022-07-26T20:37:49.619Z,22.30
2022-07-26T20:40:17.919Z,22.30
2022-07-26T20:42:45.374Z,22.30
2022-07-26T20:45:14.448Z,22.30
2022-07-26T20:47:44.083Z,22.20
2022-07-26T20:50:14.675Z,22.20
2022-07-26T20:52:41.351Z,22.20
2022-07-26T20:55:10.811Z,22.10
2022-07-26T20:57:37.747Z,22.10
2022-07-26T21:00:10.512Z,22.10
2022-07-26T21:02:37.717Z,22.10
2022-07-26T21:05:07.655Z,22.00
2022-07-26T21:07:55.753Z,22.00
2022-07-26T21:10:24.689Z,22.00
2022-07-26T21:12:57.042Z,21.90
2022-07-26T21:15:23.772Z,21.90
2022-07-26T21:17:50.513Z,21.80
2022-07-26T21:20:19.417Z,21.80
2022-07-26T21:22:50.587Z,21.70
2022-07-26T21:25:17.290Z,21.70
2022-07-26T21:27:44.093Z,21.60
2022-07-26T21:30:11.297Z,21.60
2022-07-26T21:32:38.039Z,21.50
2022-07-26T21:35:05.330Z,21.50
2022-07-26T21:37:34.539Z,21.50
2022-07-26T21:40:01.289Z,21.50
2022-07-26T21:42:30.161Z,21.50
2022-07-26T21:45:01.621Z,21.50
2022-07-26T21:47:30.438Z,21.40
2022-07-26T21:50:00.230Z,21.40
2022-07-26T21:52:26.966Z,21.40
2022-07-26T21:54:53.656Z,21.30
2022-07-26T21:57:22.772Z,21.10
2022-07-26T21:59:51.704Z,20.90
2022-07-26T22:02:21.883Z,20.80
2022-07-26T22:04:50.910Z,20.70
2022-07-26T22:07:17.841Z,20.70
2022-07-26T22:09:44.526Z,20.70
2022-07-26T22:12:11.603Z,20.60
2022-07-26T22:14:38.351Z,20.50
2022-07-26T22:17:05.081Z,20.50
2022-07-26T22:19:31.851Z,20.50
2022-07-26T22:21:58.632Z,20.40
2022-07-26T22:24:30.198Z,20.30
2022-07-26T22:26:56.866Z,20.30
2022-07-26T22:29:23.631Z,20.40
2022-07-26T22:31:50.405Z,20.40
2022-07-26T22:34:19.591Z,20.40
2022-07-26T22:36:46.285Z,20.50
2022-07-26T22:39:13.359Z,20.40
2022-07-26T22:42:13.815Z,20.30
2022-07-26T22:44:35.997Z,20.30
2022-07-26T22:47:02.708Z,20.30
2022-07-26T22:49:31.654Z,20.20
2022-07-26T22:51:58.411Z,20.30
2022-07-26T22:54:25.093Z,20.30
2022-07-26T22:56:53.978Z,20.40
2022-07-26T22:59:21.477Z,20.40
2022-07-26T23:01:51.150Z,20.40
2022-07-26T23:04:20.163Z,20.50
2022-07-26T23:06:54.817Z,20.50
2022-07-26T23:09:21.729Z,20.50
2022-07-26T23:11:48.450Z,20.50
2022-07-26T23:14:19.604Z,20.50
2022-07-26T23:16:46.321Z,20.50
2022-07-26T23:19:13.593Z,20.50
2022-07-26T23:21:42.946Z,20.50
2022-07-26T23:24:09.859Z,20.40
2022-07-26T23:26:37.121Z,20.40
2022-07-26T23:29:04.326Z,20.30
2022-07-26T23:31:38.091Z,20.20
2022-07-26T23:34:07.065Z,20.30
2022-07-26T23:36:33.770Z,20.20
2022-07-26T23:39:00.762Z,20.20
2022-07-26T23:41:27.954Z,20.20
2022-07-26T23:43:55.106Z,20.20
2022-07-26T23:46:22.764Z,20.20
2022-07-26T23:48:50.204Z,20.20
2022-07-26T23:51:19.621Z,20.20
2022-07-26T23:53:46.940Z,20.20
2022-07-26T23:56:13.699Z,20.10
2022-07-26T23:58:40.410Z,20.10
